createdAt,value
2023-03-14T00:01:32.193Z,6.80
2023-03-14T00:04:01.401Z,4.97
2023-03-14T00:06:29.297Z,3.70
2023-03-14T00:08:57.204Z,4.70
2023-03-14T00:11:25.006Z,5.63
2023-03-14T00:13:53.903Z,4.10
2023-03-14T00:16:22.372Z,5.10
2023-03-14T00:18:50.246Z,3.10
2023-03-14T00:21:19.952Z,5.37
2023-03-14T00:23:48.009Z,6.27
2023-03-14T00:26:18.168Z,5.50
2023-03-14T00:28:46.517Z,3.83
2023-03-14T00:31:16.737Z,5.37
2023-03-14T00:33:46.469Z,4.93
2023-03-14T00:36:17.448Z,4.00
2023-03-14T00:38:51.344Z,3.67
2023-03-14T00:41:23.171Z,5.50
2023-03-14T00:43:52.272Z,5.60
2023-03-14T00:46:21.849Z,6.50
2023-03-14T00:48:49.712Z,4.23
2023-03-14T00:51:35.928Z,6.30
2023-03-14T00:54:05.300Z,5.87
2023-03-14T00:56:33.138Z,3.90
2023-03-14T00:59:01.071Z,4.00
2023-03-14T01:01:29.025Z,3.60
2023-03-14T01:03:57.533Z,3.20
2023-03-14T01:06:27.958Z,2.27
2023-03-14T01:08:57.909Z,3.30
2023-03-14T01:11:32.350Z,2.20
2023-03-14T01:14:01.069Z,3.10
2023-03-14T01:16:33.128Z,4.03
2023-03-14T01:19:02.973Z,3.47
2023-03-14T01:21:34.551Z,4.47
2023-03-14T01:24:06.409Z,4.10
2023-03-14T01:26:36.680Z,4.60
2023-03-14T01:29:07.007Z,5.83
2023-03-14T01:31:37.617Z,7.13
2023-03-14T01:34:05.846Z,3.87
2023-03-14T01:36:34.056Z,4.03
2023-03-14T01:39:03.967Z,4.30
2023-03-14T01:41:32.511Z,4.70
2023-03-14T01:44:02.781Z,5.60
2023-03-14T01:46:39.908Z,5.27
2023-03-14T01:49:21.358Z,3.37
2023-03-14T01:52:01.549Z,5.20
2023-03-14T01:54:36.975Z,7.17
2023-03-14T01:57:11.920Z,3.93
2023-03-14T01:59:46.890Z,4.57
2023-03-14T02:02:16.601Z,6.75
2023-03-14T02:04:45.418Z,5.17
2023-03-14T02:07:23.356Z,6.37
2023-03-14T02:10:19.532Z,6.33
2023-03-14T02:12:50.340Z,5.87
2023-03-14T02:15:35.082Z,9.60
2023-03-14T02:18:32.003Z,4.63
2023-03-14T02:21:16.745Z,6.53
2023-03-14T02:23:56.666Z,5.03
2023-03-14T02:26:37.708Z,10.60
2023-03-14T02:29:14.312Z,14.00
2023-03-14T02:31:43.054Z,10.83
2023-03-14T02:34:11.671Z,8.23
2023-03-14T02:36:39.674Z,5.20
2023-03-14T02:39:16.726Z,4.77
2023-03-14T02:41:49.973Z,5.70
2023-03-14T02:44:20.984Z,7.93
2023-03-14T02:46:50.611Z,5.87
2023-03-14T02:49:19.190Z,6.40
2023-03-14T02:51:49.560Z,5.83
2023-03-14T02:54:20.653Z,3.63
2023-03-14T02:56:49.222Z,4.60
2023-03-14T02:59:17.047Z,3.50
2023-03-14T03:01:53.727Z,4.03
2023-03-14T03:04:22.583Z,2.70
2023-03-14T03:06:50.629Z,2.60
2023-03-14T03:09:18.539Z,3.80
2023-03-14T03:11:46.649Z,3.70
2023-03-14T03:14:20.570Z,3.07
2023-03-14T03:16:49.714Z,3.43
2023-03-14T03:19:19.427Z,3.70
2023-03-14T03:21:49.381Z,3.63
2023-03-14T03:24:18.643Z,2.57
2023-03-14T03:26:46.605Z,3.63
2023-03-14T03:29:14.889Z,2.03
2023-03-14T03:31:43.349Z,3.07
2023-03-14T03:34:11.837Z,3.80
2023-03-14T03:36:42.220Z,2.50
2023-03-14T03:39:10.367Z,4.10
2023-03-14T03:41:38.481Z,2.60
2023-03-14T03:44:07.025Z,2.67
2023-03-14T03:46:35.649Z,3.47
2023-03-14T03:49:03.477Z,3.90
2023-03-14T03:51:31.601Z,3.67
2023-03-14T03:54:01.278Z,2.47
2023-03-14T03:56:35.953Z,2.15
2023-03-14T03:59:03.963Z,4.40
2023-03-14T04:01:31.771Z,2.73
2023-03-14T04:04:01.335Z,2.60
2023-03-14T04:06:29.607Z,3.07
2023-03-14T04:09:01.682Z,2.70
2023-03-14T04:11:44.004Z,3.67
2023-03-14T04:14:21.082Z,4.33
2023-03-14T04:16:51.408Z,3.40
2023-03-14T04:19:22.028Z,3.40
2023-03-14T04:21:51.560Z,4.70
2023-03-14T04:24:22.337Z,5.10
2023-03-14T04:26:52.732Z,4.60
2023-03-14T04:29:22.350Z,4.13
2023-03-14T04:31:50.290Z,3.50
2023-03-14T04:34:19.611Z,3.73
2023-03-14T04:36:54.028Z,3.85
2023-03-14T04:39:31.105Z,4.60
2023-03-14T04:42:08.466Z,4.20
2023-03-14T04:44:38.685Z,4.10
2023-03-14T04:47:07.620Z,3.50
2023-03-14T04:49:36.865Z,5.80
2023-03-14T04:52:05.094Z,5.50
2023-03-14T04:54:36.421Z,4.30
2023-03-14T04:57:04.557Z,3.70
2023-03-14T04:59:35.099Z,3.00
2023-03-14T05:02:32.114Z,4.70
2023-03-14T05:05:10.069Z,3.80
2023-03-14T05:07:46.962Z,4.13
2023-03-14T05:10:39.125Z,4.93
2023-03-14T05:13:19.059Z,5.43
2023-03-14T05:16:10.039Z,4.90
2023-03-14T05:19:16.407Z,4.83
2023-03-14T05:22:02.160Z,5.35
2023-03-14T05:24:32.854Z,5.87
2023-03-14T05:27:05.744Z,7.80
2023-03-14T05:29:55.084Z,7.90
2023-03-14T05:32:37.666Z,6.33
2023-03-14T05:35:38.021Z,5.70
2023-03-14T05:38:15.368Z,7.10
2023-03-14T05:40:58.845Z,6.90
2023-03-14T05:43:46.798Z,4.83
2023-03-14T05:46:34.962Z,3.93
2023-03-14T05:49:21.743Z,3.93
2023-03-14T05:51:56.285Z,6.07
2023-03-14T05:54:44.325Z,4.43
2023-03-14T05:57:43.705Z,4.97
2023-03-14T06:00:24.208Z,3.70
2023-03-14T06:03:09.116Z,3.87
2023-03-14T06:05:43.378Z,3.07
2023-03-14T06:08:11.990Z,3.87
2023-03-14T06:10:40.822Z,5.27
2023-03-14T06:13:08.721Z,5.33
2023-03-14T06:15:38.290Z,5.87
2023-03-14T06:18:06.379Z,4.60
2023-03-14T06:20:40.050Z,4.83
2023-03-14T06:23:10.758Z,4.60
2023-03-14T06:25:38.994Z,2.87
2023-03-14T06:28:06.870Z,3.20
2023-03-14T06:30:35.093Z,2.57
2023-03-14T06:33:05.650Z,4.90
2023-03-14T06:35:33.729Z,3.53
2023-03-14T06:38:02.014Z,4.50
2023-03-14T06:40:30.694Z,5.77
2023-03-14T06:43:04.628Z,4.10
2023-03-14T06:45:34.105Z,4.43
2023-03-14T06:48:08.993Z,5.70
2023-03-14T06:50:42.769Z,4.67
2023-03-14T06:53:10.763Z,7.97
2023-03-14T06:55:42.379Z,5.67
2023-03-14T07:01:22.142Z,4.10
2023-03-14T07:03:52.227Z,4.20
2023-03-14T07:06:21.134Z,3.30
2023-03-14T07:08:49.543Z,4.53
2023-03-14T07:11:18.870Z,3.53
2023-03-14T07:13:47.473Z,4.10
2023-03-14T07:16:16.315Z,3.50
2023-03-14T07:18:44.323Z,4.03
2023-03-14T07:21:13.731Z,3.00
2023-03-14T07:23:42.123Z,3.30
2023-03-14T07:26:10.830Z,3.60
2023-03-14T07:28:44.086Z,3.00
2023-03-14T07:31:16.854Z,3.60
2023-03-14T07:33:44.891Z,3.07
2023-03-14T07:36:14.757Z,4.27
2023-03-14T07:38:46.538Z,3.37
2023-03-14T07:41:29.889Z,3.43
2023-03-14T07:44:18.738Z,4.50
2023-03-14T07:46:46.873Z,3.20
2023-03-14T07:49:14.721Z,2.30
2023-03-14T07:51:45.030Z,2.50
2023-03-14T07:54:13.071Z,2.63
2023-03-14T07:56:40.945Z,3.30
2023-03-14T07:59:08.967Z,2.67
2023-03-14T08:01:36.790Z,2.43
2023-03-14T08:04:05.370Z,1.97
2023-03-14T08:06:33.314Z,1.87
2023-03-14T08:09:02.615Z,2.03
2023-03-14T08:11:30.473Z,2.10
2023-03-14T08:13:58.479Z,2.10
2023-03-14T08:16:27.050Z,2.40
2023-03-14T08:19:15.239Z,2.40
2023-03-14T08:22:16.012Z,5.30
2023-03-14T08:24:47.150Z,5.20
2023-03-14T08:27:15.951Z,3.63
2023-03-14T08:29:44.595Z,4.50
2023-03-14T08:32:13.237Z,2.70
2023-03-14T08:34:41.191Z,4.80
2023-03-14T08:37:23.475Z,3.20
2023-03-14T08:39:55.423Z,3.47
2023-03-14T08:42:23.251Z,3.10
2023-03-14T08:45:14.190Z,2.97
2023-03-14T08:48:00.545Z,2.20
2023-03-14T08:50:47.380Z,2.83
2023-03-14T08:53:34.520Z,2.33
2023-03-14T08:56:06.833Z,2.10
2023-03-14T08:58:34.939Z,2.00
2023-03-14T09:01:02.872Z,2.07
2023-03-14T09:03:30.881Z,1.87
2023-03-14T09:06:04.641Z,1.70
2023-03-14T09:08:32.631Z,1.63
2023-03-14T09:11:01.036Z,1.70
2023-03-14T09:13:30.317Z,1.90
2023-03-14T09:15:58.488Z,1.80
2023-03-14T09:18:26.284Z,1.90
2023-03-14T09:20:54.146Z,2.10
2023-03-14T09:23:21.936Z,2.03
2023-03-14T09:25:49.820Z,1.23
2023-03-14T09:28:18.557Z,1.17
2023-03-14T09:30:48.498Z,1.00
2023-03-14T09:33:16.556Z,0.87
2023-03-14T09:35:44.791Z,0.80
2023-03-14T09:38:13.084Z,0.63
2023-03-14T09:40:42.291Z,0.50
2023-03-14T09:43:14.943Z,0.80
2023-03-14T09:45:47.039Z,0.70
2023-03-14T09:48:22.743Z,0.77
2023-03-14T09:53:28.601Z,0.67
2023-03-14T09:55:59.096Z,0.93
2023-03-14T09:58:27.384Z,1.10
2023-03-14T10:00:59.106Z,1.00
2023-03-14T10:03:34.884Z,1.07
2023-03-14T10:06:05.349Z,0.90
2023-03-14T10:08:33.219Z,0.43
2023-03-14T10:11:00.944Z,0.70
2023-03-14T10:13:30.503Z,0.90
2023-03-14T10:16:02.476Z,0.70
2023-03-14T10:18:35.745Z,0.40
2023-03-14T10:21:08.239Z,0.40
2023-03-14T10:23:39.991Z,0.67
2023-03-14T10:26:15.234Z,0.50
2023-03-14T10:28:51.873Z,0.30
2023-03-14T10:31:26.737Z,0.65
2023-03-14T10:34:05.770Z,0.77
2023-03-14T10:36:35.978Z,0.60
2023-03-14T10:39:31.732Z,0.40
2023-03-14T10:42:12.056Z,0.68
2023-03-14T10:44:43.620Z,1.30
2023-03-14T10:47:38.907Z,1.30
2023-03-14T10:50:28.363Z,1.37
2023-03-14T10:53:05.532Z,1.20
2023-03-14T10:55:46.179Z,2.03
2023-03-14T10:58:27.002Z,1.50
2023-03-14T11:01:15.308Z,1.60
2023-03-14T11:03:58.488Z,1.20
2023-03-14T11:06:53.994Z,1.30
2023-03-14T11:09:34.091Z,0.98
2023-03-14T11:12:26.633Z,1.70
2023-03-14T11:15:06.514Z,1.73
2023-03-14T11:17:48.144Z,1.70
2023-03-14T11:20:37.668Z,1.13
2023-03-14T11:23:15.341Z,1.70
2023-03-14T11:25:57.480Z,1.20
2023-03-14T11:28:47.658Z,1.83
2023-03-14T11:31:26.734Z,1.60
2023-03-14T11:34:03.224Z,1.60
2023-03-14T11:36:42.135Z,1.27
2023-03-14T11:39:19.186Z,1.53
2023-03-14T11:41:54.211Z,1.40
2023-03-14T11:44:39.111Z,1.77
2023-03-14T11:47:15.759Z,1.80
2023-03-14T11:49:53.514Z,2.00
2023-03-14T11:52:44.355Z,1.47
2023-03-14T11:55:23.415Z,2.40
2023-03-14T11:57:54.640Z,1.30
2023-03-14T12:00:41.246Z,2.50
2023-03-14T12:03:24.562Z,2.40
2023-03-14T12:06:24.718Z,1.97
2023-03-14T12:09:00.094Z,2.10
2023-03-14T12:11:46.158Z,1.67
2023-03-14T12:14:25.447Z,1.90
2023-03-14T12:16:59.851Z,1.80
2023-03-14T12:19:34.089Z,1.53
2023-03-14T12:22:21.035Z,2.03
2023-03-14T12:24:59.197Z,2.37
2023-03-14T12:28:07.414Z,2.00
2023-03-14T12:30:50.503Z,2.87
2023-03-14T12:33:39.851Z,2.60
2023-03-14T12:36:55.865Z,2.27
2023-03-14T12:39:55.420Z,2.40
2023-03-14T12:42:46.297Z,2.07
2023-03-14T12:45:37.874Z,2.83
2023-03-14T12:48:44.353Z,2.13
2023-03-14T12:51:25.708Z,2.93
2023-03-14T12:57:31.345Z,3.13
2023-03-14T13:00:05.768Z,3.00
2023-03-14T13:02:45.783Z,4.03
2023-03-14T13:05:20.924Z,5.43
2023-03-14T13:08:11.006Z,3.27
2023-03-14T13:10:50.237Z,3.87
2023-03-14T13:13:24.369Z,3.70
2023-03-14T13:16:16.638Z,3.30
2023-03-14T13:19:00.762Z,2.80
2023-03-14T13:21:37.591Z,3.67
2023-03-14T13:24:25.506Z,2.93
2023-03-14T13:26:57.784Z,3.30
2023-03-14T13:29:34.839Z,2.27
2023-03-14T13:32:24.415Z,2.83
2023-03-14T13:38:35.311Z,2.10
2023-03-14T13:41:42.616Z,2.70
2023-03-14T13:48:20.251Z,2.53
2023-03-14T13:54:31.608Z,1.67
2023-03-14T13:57:20.337Z,2.60
2023-03-14T14:00:06.536Z,1.97
2023-03-14T14:03:39.637Z,2.13
2023-03-14T14:07:01.338Z,1.63
2023-03-14T14:09:49.254Z,2.10
2023-03-14T14:12:52.023Z,2.17
2023-03-14T14:15:49.126Z,2.30
2023-03-14T14:18:31.012Z,2.83
2023-03-14T14:21:01.411Z,2.67
2023-03-14T14:23:59.432Z,2.50
2023-03-14T14:33:14.714Z,1.90
2023-03-14T14:35:45.203Z,2.10
2023-03-14T14:41:55.044Z,1.87
2023-03-14T14:44:38.640Z,2.20
2023-03-14T14:47:26.579Z,1.40
2023-03-14T14:50:33.138Z,2.10
2023-03-14T14:53:43.315Z,1.45
2023-03-14T14:56:41.381Z,1.93
2023-03-14T14:59:55.821Z,1.43
2023-03-14T15:02:45.134Z,1.50
2023-03-14T15:09:21.904Z,1.20
2023-03-14T15:12:01.629Z,1.37
2023-03-14T15:15:30.509Z,1.40
2023-03-14T15:18:01.951Z,1.20
2023-03-14T15:20:50.128Z,1.10
2023-03-14T15:27:54.730Z,1.40
2023-03-14T15:30:36.514Z,1.30
2023-03-14T15:33:14.700Z,1.20
2023-03-14T15:38:46.965Z,1.67
2023-03-14T15:44:49.633Z,1.50
2023-03-14T15:47:40.549Z,0.93
2023-03-14T15:51:05.162Z,1.47
2023-03-14T15:54:30.259Z,1.40
2023-03-14T15:57:47.784Z,1.27
2023-03-14T16:03:15.010Z,1.73
2023-03-14T16:09:52.009Z,1.40
2023-03-14T16:17:20.324Z,1.20
2023-03-14T16:20:00.970Z,1.20
2023-03-14T16:23:22.744Z,1.30
2023-03-14T16:25:52.954Z,0.97
2023-03-14T16:28:32.460Z,1.50
2023-03-14T16:31:31.837Z,1.57
2023-03-14T16:34:36.654Z,1.40
2023-03-14T16:37:17.378Z,1.50
2023-03-14T16:40:12.472Z,1.23
2023-03-14T16:43:17.440Z,1.60
2023-03-14T16:45:55.594Z,1.60
2023-03-14T16:48:27.305Z,1.60
2023-03-14T16:51:06.328Z,1.33
2023-03-14T16:53:46.562Z,1.80
2023-03-14T16:56:42.289Z,1.80
2023-03-14T16:59:33.228Z,1.17
2023-03-14T17:02:06.556Z,1.83
2023-03-14T17:04:40.188Z,1.77
2023-03-14T17:07:14.653Z,1.70
2023-03-14T17:09:44.352Z,1.50
2023-03-14T17:12:20.717Z,1.70
2023-03-14T17:14:53.076Z,1.60
2023-03-14T17:17:30.464Z,1.67
2023-03-14T17:20:02.943Z,1.60
2023-03-14T17:23:15.990Z,1.67
2023-03-14T17:25:53.810Z,1.60
2023-03-14T17:28:30.048Z,1.20
2023-03-14T17:31:11.767Z,1.63
2023-03-14T17:33:44.126Z,1.47
2023-03-14T17:36:19.473Z,1.57
2023-03-14T17:38:51.859Z,1.65
2023-03-14T17:41:24.264Z,1.77
2023-03-14T17:44:47.538Z,3.67
2023-03-14T17:47:19.331Z,2.77
2023-03-14T17:50:11.578Z,2.03
2023-03-14T17:52:40.835Z,2.50
2023-03-14T17:55:12.269Z,1.90
2023-03-14T17:57:46.287Z,2.57
2023-03-14T18:00:24.061Z,2.00
2023-03-14T18:03:00.321Z,3.23
2023-03-14T18:05:38.695Z,3.47
2023-03-14T18:08:15.594Z,2.20
2023-03-14T18:10:55.238Z,3.10
2023-03-14T18:16:21.952Z,2.27
2023-03-14T18:19:12.175Z,2.70
2023-03-14T18:21:42.418Z,1.50
2023-03-14T18:24:19.741Z,2.07
2023-03-14T18:26:50.136Z,1.53
2023-03-14T18:29:46.597Z,1.43
2023-03-14T18:32:23.143Z,1.60
2023-03-14T18:34:53.082Z,1.70
2023-03-14T18:37:24.065Z,1.77
2023-03-14T18:39:55.582Z,2.07
2023-03-14T18:42:27.096Z,1.73
2023-03-14T18:44:59.494Z,1.93
2023-03-14T18:47:37.315Z,2.00
2023-03-14T18:50:10.960Z,2.00
2023-03-14T18:52:53.322Z,1.77
2023-03-14T18:55:45.112Z,2.40
2023-03-14T18:58:16.223Z,2.13
2023-03-14T19:00:45.545Z,1.90
2023-03-14T19:03:15.396Z,1.90
2023-03-14T19:05:47.432Z,2.23
2023-03-14T19:08:23.429Z,1.53
2023-03-14T19:13:27.632Z,2.20
2023-03-14T19:15:57.688Z,1.70
2023-03-14T19:18:27.895Z,2.23
2023-03-14T19:21:25.456Z,2.10
2023-03-14T19:23:55.514Z,1.73
2023-03-14T19:26:25.081Z,1.93
2023-03-14T19:28:58.493Z,1.80
2023-03-14T19:31:28.765Z,1.80
2023-03-14T19:34:02.094Z,1.80
2023-03-14T19:36:35.327Z,1.80
2023-03-14T19:39:06.303Z,2.30
2023-03-14T19:41:35.331Z,2.20
2023-03-14T19:44:08.155Z,2.30
2023-03-14T19:46:36.488Z,1.63
2023-03-14T19:49:09.361Z,1.57
2023-03-14T19:51:37.919Z,2.80
2023-03-14T19:54:27.311Z,2.40
2023-03-14T19:56:58.577Z,2.10
2023-03-14T19:59:46.135Z,1.80
2023-03-14T20:02:17.384Z,2.20
2023-03-14T20:05:01.133Z,2.37
2023-03-14T20:07:41.237Z,1.88
2023-03-14T20:10:33.848Z,1.80
2023-03-14T20:13:20.697Z,2.00
2023-03-14T20:15:53.131Z,3.10
2023-03-14T20:18:40.181Z,2.13
2023-03-14T20:21:19.462Z,2.03
2023-03-14T20:24:14.305Z,2.00
2023-03-14T20:26:45.540Z,1.80
2023-03-14T20:32:15.004Z,2.40
2023-03-14T20:34:45.474Z,1.83
2023-03-14T20:37:15.364Z,2.10
2023-03-14T20:42:30.953Z,1.70
2023-03-14T20:45:13.867Z,1.87
2023-03-14T20:48:04.135Z,2.43
2023-03-14T20:50:33.947Z,2.10
2023-03-14T20:53:11.216Z,1.83
2023-03-14T20:55:50.159Z,2.10
2023-03-14T20:58:25.714Z,2.57
2023-03-14T21:01:07.403Z,1.90
2023-03-14T21:03:46.131Z,2.20
2023-03-14T21:06:33.202Z,2.10
2023-03-14T21:09:14.849Z,1.90
2023-03-14T21:12:05.935Z,1.85
2023-03-14T21:14:54.293Z,2.90
2023-03-14T21:18:00.212Z,1.80
2023-03-14T21:20:48.653Z,1.97
2023-03-14T21:23:27.517Z,2.03
2023-03-14T21:26:19.793Z,1.90
2023-03-14T21:28:54.580Z,1.80
2023-03-14T21:31:28.331Z,1.90
2023-03-14T21:33:57.858Z,2.00
2023-03-14T21:36:29.363Z,1.97
2023-03-14T21:39:09.214Z,2.10
2023-03-14T21:41:41.717Z,2.20
2023-03-14T21:44:24.096Z,2.17
2023-03-14T21:47:00.039Z,3.90
2023-03-14T21:49:38.590Z,2.43
2023-03-14T21:52:20.880Z,4.07
2023-03-14T21:54:52.433Z,5.50
2023-03-14T21:57:35.733Z,4.17
2023-03-14T22:00:20.387Z,2.93
2023-03-14T22:03:13.275Z,2.20
2023-03-14T22:05:57.476Z,5.17
2023-03-14T22:08:32.397Z,4.93
2023-03-14T22:11:08.782Z,9.07
2023-03-14T22:14:18.891Z,4.20
2023-03-14T22:16:53.598Z,5.10
2023-03-14T22:19:24.268Z,7.53
2023-03-14T22:22:01.032Z,10.57
2023-03-14T22:24:37.414Z,9.63
2023-03-14T22:27:13.176Z,10.93
2023-03-14T22:30:03.563Z,10.57
2023-03-14T22:32:33.731Z,9.43
2023-03-14T22:35:06.163Z,9.03
2023-03-14T22:37:57.283Z,10.07
2023-03-14T22:40:49.307Z,5.63
2023-03-14T22:43:29.199Z,3.20
2023-03-14T22:46:13.281Z,3.03
2023-03-14T22:48:52.039Z,2.73
2023-03-14T22:51:44.916Z,2.13
2023-03-14T22:54:59.249Z,3.27
2023-03-14T22:57:31.216Z,2.33
2023-03-14T22:59:59.378Z,2.40
2023-03-14T23:02:28.702Z,2.50
2023-03-14T23:04:56.516Z,2.13
2023-03-14T23:07:24.381Z,2.20
2023-03-14T23:09:53.285Z,2.53
2023-03-14T23:12:22.259Z,2.00
2023-03-14T23:14:50.154Z,2.30
2023-03-14T23:17:18.006Z,1.90
2023-03-14T23:19:47.379Z,2.10
2023-03-14T23:22:15.335Z,1.90
2023-03-14T23:24:48.448Z,2.07
2023-03-14T23:27:17.680Z,2.00
2023-03-14T23:29:46.182Z,1.90
2023-03-14T23:32:15.601Z,2.20
2023-03-14T23:34:44.618Z,1.90
2023-03-14T23:37:14.249Z,2.03
2023-03-14T23:39:45.737Z,1.90
2023-03-14T23:42:14.132Z,1.93
2023-03-14T23:44:41.902Z,2.20
2023-03-14T23:47:10.036Z,1.73
2023-03-14T23:49:38.022Z,1.83
2023-03-14T23:52:05.839Z,2.00
2023-03-14T23:54:35.664Z,2.20
2023-03-14T23:57:05.395Z,1.80
2023-03-14T23:59:34.112Z,2.10
